sensor_id;sensor_type;location;lat;lon;timestamp;pressure;altitude;pressure_sealevel;temperature;humidity
7297;BME280;40758;54.038;11.684;2024-01-06T00:02:08;100638.38;;;-2.23;100.00
7297;BME280;40758;54.038;11.684;2024-01-06T00:04:35;100637.38;;;-2.22;100.00
7297;BME280;40758;54.038;11.684;2024-01-06T00:07:02;100627.72;;;-2.23;100.00
7297;BME280;40758;54.038;11.684;2024-01-06T00:09:28;100631.06;;;-2.21;100.00
7297;BME280;40758;54.038;11.684;2024-01-06T00:11:55;100613.75;;;-2.25;100.00
7297;BME280;40758;54.038;11.684;2024-01-06T00:14:22;100637.78;;;-2.27;100.00
7297;BME280;40758;54.038;11.684;2024-01-06T00:16:49;100636.13;;;-2.28;100.00
7297;BME280;40758;54.038;11.684;2024-01-06T00:19:16;100635.44;;;-2.30;100.00
7297;BME280;40758;54.038;11.684;2024-01-06T00:21:44;100640.91;;;-2.31;100.00
7297;BME280;40758;54.038;11.684;2024-01-06T00:24:11;100628.00;;;-2.36;100.00
7297;BME280;40758;54.038;11.684;2024-01-06T00:26:38;100642.41;;;-2.38;100.00
7297;BME280;40758;54.038;11.684;2024-01-06T00:29:04;100639.06;;;-2.41;100.00
7297;BME280;40758;54.038;11.684;2024-01-06T00:31:31;100639.22;;;-2.42;100.00
7297;BME280;40758;54.038;11.684;2024-01-06T00:33:58;100655.72;;;-2.38;100.00
7297;BME280;40758;54.038;11.684;2024-01-06T00:36:25;100655.72;;;-2.38;100.00
7297;BME280;40758;54.038;11.684;2024-01-06T00:38:52;100662.44;;;-2.34;100.00
7297;BME280;40758;54.038;11.684;2024-01-06T00:41:19;100659.78;;;-2.34;100.00
7297;BME280;40758;54.038;11.684;2024-01-06T00:43:45;100664.69;;;-2.30;100.00
7297;BME280;40758;54.038;11.684;2024-01-06T00:46:12;100657.69;;;-2.31;100.00
7297;BME280;40758;54.038;11.684;2024-01-06T00:48:39;100671.69;;;-2.29;100.00
7297;BME280;40758;54.038;11.684;2024-01-06T00:51:06;100672.25;;;-2.25;100.00
7297;BME280;40758;54.038;11.684;2024-01-06T00:53:33;100677.56;;;-2.25;100.00
7297;BME280;40758;54.038;11.684;2024-01-06T00:56:00;100678.94;;;-2.21;100.00
7297;BME280;40758;54.038;11.684;2024-01-06T00:58:26;100675.47;;;-2.22;100.00
7297;BME280;40758;54.038;11.684;2024-01-06T01:00:53;100673.94;;;-2.24;100.00
7297;BME280;40758;54.038;11.684;2024-01-06T01:03:20;100678.13;;;-2.22;100.00
7297;BME280;40758;54.038;11.684;2024-01-06T01:05:47;100687.78;;;-2.21;100.00
7297;BME280;40758;54.038;11.684;2024-01-06T01:08:14;100682.59;;;-2.22;100.00
7297;BME280;40758;54.038;11.684;2024-01-06T01:10:40;100680.66;;;-2.20;100.00
7297;BME280;40758;54.038;11.684;2024-01-06T01:13:07;100684.84;;;-2.18;100.00
7297;BME280;40758;54.038;11.684;2024-01-06T01:15:34;100685.97;;;-2.20;100.00
7297;BME280;40758;54.038;11.684;2024-01-06T01:18:01;100696.31;;;-2.17;100.00
7297;BME280;40758;54.038;11.684;2024-01-06T01:20:28;100691.16;;;-2.19;100.00
7297;BME280;40758;54.038;11.684;2024-01-06T01:22:55;100710.47;;;-2.17;100.00
7297;BME280;40758;54.038;11.684;2024-01-06T01:25:21;100686.25;;;-2.23;100.00
7297;BME280;40758;54.038;11.684;2024-01-06T01:27:48;100708.63;;;-2.16;100.00
7297;BME280;40758;54.038;11.684;2024-01-06T01:30:15;100705.72;;;-2.13;100.00
7297;BME280;40758;54.038;11.684;2024-01-06T01:32:43;100713.69;;;-2.13;100.00
7297;BME280;40758;54.038;11.684;2024-01-06T01:35:09;100715.63;;;-2.15;100.00
7297;BME280;40758;54.038;11.684;2024-01-06T01:37:36;100712.03;;;-2.14;100.00
7297;BME280;40758;54.038;11.684;2024-01-06T01:40:03;100713.69;;;-2.13;100.00
7297;BME280;40758;54.038;11.684;2024-01-06T01:42:30;100715.63;;;-2.15;100.00
7297;BME280;40758;54.038;11.684;2024-01-06T01:44:57;100709.22;;;-2.12;100.00
7297;BME280;40758;54.038;11.684;2024-01-06T01:47:24;100708.22;;;-2.11;100.00
7297;BME280;40758;54.038;11.684;2024-01-06T01:49:51;100703.06;;;-2.13;100.00
7297;BME280;40758;54.038;11.684;2024-01-06T01:52:18;100702.22;;;-2.13;100.00
7297;BME280;40758;54.038;11.684;2024-01-06T01:54:45;100698.00;;;-2.16;100.00
7297;BME280;40758;54.038;11.684;2024-01-06T01:57:14;100680.66;;;-2.20;100.00
7297;BME280;40758;54.038;11.684;2024-01-06T01:59:42;100683.44;;;-2.22;100.00
7297;BME280;40758;54.038;11.684;2024-01-06T02:02:09;100699.81;;;-2.17;100.00
7297;BME280;40758;54.038;11.684;2024-01-06T02:04:36;100701.63;;;-2.17;100.00
7297;BME280;40758;54.038;11.684;2024-01-06T02:07:03;100699.53;;;-2.23;100.00
7297;BME280;40758;54.038;11.684;2024-01-06T02:09:30;100682.19;;;-2.18;100.00
7297;BME280;40758;54.038;11.684;2024-01-06T02:11:57;100705.97;;;-2.16;100.00
7297;BME280;40758;54.038;11.684;2024-01-06T02:14:24;100701.63;;;-2.17;100.00
7297;BME280;40758;54.038;11.684;2024-01-06T02:16:51;100696.91;;;-2.13;100.00
7297;BME280;40758;54.038;11.684;2024-01-06T02:19:18;100702.22;;;-2.13;100.00
7297;BME280;40758;54.038;11.684;2024-01-06T02:21:52;100698.72;;;-2.14;100.00
7297;BME280;40758;54.038;11.684;2024-01-06T02:24:20;100701.50;;;-2.16;100.00
7297;BME280;40758;54.038;11.684;2024-01-06T02:26:47;100713.69;;;-2.13;100.00
7297;BME280;40758;54.038;11.684;2024-01-06T02:29:13;100726.16;;;-2.13;100.00
7297;BME280;40758;54.038;11.684;2024-01-06T02:31:40;100730.66;;;-2.14;100.00
7297;BME280;40758;54.038;11.684;2024-01-06T02:34:07;100728.94;;;-2.15;100.00
7297;BME280;40758;54.038;11.684;2024-01-06T02:36:34;100742.25;;;-2.15;100.00
7297;BME280;40758;54.038;11.684;2024-01-06T02:39:01;100737.63;;;-2.13;100.00
7297;BME280;40758;54.038;11.684;2024-01-06T02:41:27;100737.63;;;-2.13;100.00
7297;BME280;40758;54.038;11.684;2024-01-06T02:43:54;100731.59;;;-2.15;100.00
7297;BME280;40758;54.038;11.684;2024-01-06T02:46:22;100733.31;;;-2.14;100.00
7297;BME280;40758;54.038;11.684;2024-01-06T02:48:49;100736.91;;;-2.15;100.00
7297;BME280;40758;54.038;11.684;2024-01-06T02:51:16;100747.44;;;-2.13;100.00
7297;BME280;40758;54.038;11.684;2024-01-06T02:53:43;100740.56;;;-2.16;100.00
7297;BME280;40758;54.038;11.684;2024-01-06T02:56:11;100744.91;;;-2.15;100.00
7297;BME280;40758;54.038;11.684;2024-01-06T02:58:38;100745.88;;;-2.16;100.00
7297;BME280;40758;54.038;11.684;2024-01-06T03:01:05;100738.63;;;-2.14;100.00
7297;BME280;40758;54.038;11.684;2024-01-06T03:03:33;100741.13;;;-2.12;100.00
7297;BME280;40758;54.038;11.684;2024-01-06T03:06:00;100751.94;;;-2.14;100.00
7297;BME280;40758;54.038;11.684;2024-01-06T03:08:27;100753.72;;;-2.15;100.00
7297;BME280;40758;54.038;11.684;2024-01-06T03:10:53;100751.06;;;-2.15;100.00
7297;BME280;40758;54.038;11.684;2024-01-06T03:13:20;100751.06;;;-2.15;100.00
7297;BME280;40758;54.038;11.684;2024-01-06T03:15:47;100757.09;;;-2.12;100.00
7297;BME280;40758;54.038;11.684;2024-01-06T03:18:14;100757.34;;;-2.16;100.00
7297;BME280;40758;54.038;11.684;2024-01-06T03:20:41;100773.06;;;-2.12;100.00
7297;BME280;40758;54.038;11.684;2024-01-06T03:23:11;100759.47;;;-2.19;100.00
7297;BME280;40758;54.038;11.684;2024-01-06T03:25:37;100771.50;;;-2.15;100.00
7297;BME280;40758;54.038;11.684;2024-01-06T03:28:04;100784.69;;;-2.13;100.00
7297;BME280;40758;54.038;11.684;2024-01-06T03:30:32;100782.13;;;-2.15;100.00
7297;BME280;40758;54.038;11.684;2024-01-06T03:33:00;100792.78;;;-2.15;100.00
7297;BME280;40758;54.038;11.684;2024-01-06T03:35:27;100800.78;;;-2.15;100.00
7297;BME280;40758;54.038;11.684;2024-01-06T03:37:54;100791.41;;;-2.19;100.00
7297;BME280;40758;54.038;11.684;2024-01-06T03:40:22;100800.22;;;-2.19;100.00
7297;BME280;40758;54.038;11.684;2024-01-06T03:42:48;100812.38;;;-2.16;100.00
7297;BME280;40758;54.038;11.684;2024-01-06T03:45:15;100812.69;;;-2.19;100.00
7297;BME280;40758;54.038;11.684;2024-01-06T03:47:42;100815.19;;;-2.18;100.00
7297;BME280;40758;54.038;11.684;2024-01-06T03:50:09;100813.38;;;-2.17;100.00
7297;BME280;40758;54.038;11.684;2024-01-06T03:52:36;100811.13;;;-2.22;100.00
7297;BME280;40758;54.038;11.684;2024-01-06T03:55:03;100821.09;;;-2.14;100.00
7297;BME280;40758;54.038;11.684;2024-01-06T03:57:30;100815.06;;;-2.16;100.00
7297;BME280;40758;54.038;11.684;2024-01-06T03:59:57;100825.56;;;-2.15;100.00
7297;BME280;40758;54.038;11.684;2024-01-06T04:02:24;100814.06;;;-2.15;100.00
7297;BME280;40758;54.038;11.684;2024-01-06T04:04:50;100825.44;;;-2.13;100.00
7297;BME280;40758;54.038;11.684;2024-01-06T04:07:17;100816.47;;;-2.12;100.00
7297;BME280;40758;54.038;11.684;2024-01-06T04:09:44;100828.78;;;-2.11;100.00
7297;BME280;40758;54.038;11.684;2024-01-06T04:12:11;100830.47;;;-2.10;100.00
7297;BME280;40758;54.038;11.684;2024-01-06T04:14:38;100829.63;;;-2.10;100.00
7297;BME280;40758;54.038;11.684;2024-01-06T04:17:05;100830.47;;;-2.10;100.00
7297;BME280;40758;54.038;11.684;2024-01-06T04:19:32;100838.44;;;-2.10;100.00
7297;BME280;40758;54.038;11.684;2024-01-06T04:21:59;100835.66;;;-2.08;100.00
7297;BME280;40758;54.038;11.684;2024-01-06T04:24:26;100826.13;;;-2.11;100.00
7297;BME280;40758;54.038;11.684;2024-01-06T04:26:53;100835.78;;;-2.10;100.00
7297;BME280;40758;54.038;11.684;2024-01-06T04:29:19;100811.97;;;-2.21;100.00
7297;BME280;40758;54.038;11.684;2024-01-06T04:31:46;100840.00;;;-2.07;100.00
7297;BME280;40758;54.038;11.684;2024-01-06T04:34:16;100840.00;;;-2.07;100.00
7297;BME280;40758;54.038;11.684;2024-01-06T04:36:43;100836.38;;;-2.06;100.00
7297;BME280;40758;54.038;11.684;2024-01-06T04:39:10;100837.47;;;-2.09;100.00
7297;BME280;40758;54.038;11.684;2024-01-06T04:41:39;100837.22;;;-2.06;100.00
7297;BME280;40758;54.038;11.684;2024-01-06T04:44:06;100838.34;;;-2.08;100.00
7297;BME280;40758;54.038;11.684;2024-01-06T04:46:33;100837.22;;;-2.06;100.00
7297;BME280;40758;54.038;11.684;2024-01-06T04:49:00;100837.22;;;-2.06;100.00
7297;BME280;40758;54.038;11.684;2024-01-06T04:51:29;100837.91;;;-2.04;100.00
7297;BME280;40758;54.038;11.684;2024-01-06T04:53:56;100833.72;;;-2.06;100.00
7297;BME280;40758;54.038;11.684;2024-01-06T04:56:23;100827.13;;;-2.12;100.00
7297;BME280;40758;54.038;11.684;2024-01-06T04:58:50;100838.03;;;-2.05;100.00
7297;BME280;40758;54.038;11.684;2024-01-06T05:01:17;100829.91;;;-2.13;100.00
7297;BME280;40758;54.038;11.684;2024-01-06T05:03:44;100846.88;;;-2.05;100.00
7297;BME280;40758;54.038;11.684;2024-01-06T05:06:11;100841.41;;;-2.03;100.00
7297;BME280;40758;54.038;11.684;2024-01-06T05:08:38;100842.25;;;-2.03;100.00
7297;BME280;40758;54.038;11.684;2024-01-06T05:11:11;100849.81;;;-2.08;100.00
7297;BME280;40758;54.038;11.684;2024-01-06T05:13:38;100864.25;;;-2.01;100.00
7297;BME280;40758;54.038;11.684;2024-01-06T05:16:05;100866.91;;;-2.01;100.00
7297;BME280;40758;54.038;11.684;2024-01-06T05:18:32;100863.41;;;-2.01;100.00
7297;BME280;40758;54.038;11.684;2024-01-06T05:20:59;100871.38;;;-2.01;100.00
7297;BME280;40758;54.038;11.684;2024-01-06T05:23:26;100880.91;;;-1.99;100.00
7297;BME280;40758;54.038;11.684;2024-01-06T05:25:53;100880.06;;;-1.99;100.00
7297;BME280;40758;54.038;11.684;2024-01-06T05:28:20;100889.88;;;-2.00;100.00
7297;BME280;40758;54.038;11.684;2024-01-06T05:30:46;100888.34;;;-2.02;100.00
7297;BME280;40758;54.038;11.684;2024-01-06T05:33:13;100903.31;;;-2.01;100.00
7297;BME280;40758;54.038;11.684;2024-01-06T05:35:42;100904.41;;;-2.04;100.00
7297;BME280;40758;54.038;11.684;2024-01-06T05:38:09;100903.97;;;-2.09;100.00
7297;BME280;40758;54.038;11.684;2024-01-06T05:40:36;100919.84;;;-1.98;100.00
7297;BME280;40758;54.038;11.684;2024-01-06T05:43:03;100923.34;;;-1.97;100.00
7297;BME280;40758;54.038;11.684;2024-01-06T05:45:29;100930.50;;;-1.98;100.00
7297;BME280;40758;54.038;11.684;2024-01-06T05:47:57;100923.34;;;-1.97;100.00
7297;BME280;40758;54.038;11.684;2024-01-06T05:50:24;100924.63;;;-2.01;100.00
7297;BME280;40758;54.038;11.684;2024-01-06T05:52:50;100921.41;;;-1.95;100.00
7297;BME280;40758;54.038;11.684;2024-01-06T05:55:19;100942.56;;;-1.94;100.00
7297;BME280;40758;54.038;11.684;2024-01-06T05:57:45;100933.59;;;-1.93;100.00
7297;BME280;40758;54.038;11.684;2024-01-06T06:00:13;100933.72;;;-1.94;100.00
7297;BME280;40758;54.038;11.684;2024-01-06T06:02:40;100927.44;;;-1.93;100.00
7297;BME280;40758;54.038;11.684;2024-01-06T06:05:07;100943.25;;;-1.92;100.00
7297;BME280;40758;54.038;11.684;2024-01-06T06:07:34;100938.22;;;-1.95;100.00
7297;BME280;40758;54.038;11.684;2024-01-06T06:10:09;100938.06;;;-1.93;100.00
7297;BME280;40758;54.038;11.684;2024-01-06T06:12:37;100943.97;;;-1.90;100.00
7297;BME280;40758;54.038;11.684;2024-01-06T06:15:05;100946.63;;;-1.90;100.00
7297;BME280;40758;54.038;11.684;2024-01-06T06:17:33;100941.31;;;-1.90;100.00
7297;BME280;40758;54.038;11.684;2024-01-06T06:20:00;100943.97;;;-1.90;100.00
7297;BME280;40758;54.038;11.684;2024-01-06T06:22:27;100963.31;;;-1.88;100.00
7297;BME280;40758;54.038;11.684;2024-01-06T06:24:59;100956.31;;;-1.89;100.00
7297;BME280;40758;54.038;11.684;2024-01-06T06:27:27;100968.63;;;-1.88;100.00
7297;BME280;40758;54.038;11.684;2024-01-06T06:29:54;100967.09;;;-1.90;100.00
7297;BME280;40758;54.038;11.684;2024-01-06T06:32:22;100973.69;;;-1.84;100.00
7297;BME280;40758;54.038;11.684;2024-01-06T06:34:49;100978.19;;;-1.85;100.00
7297;BME280;40758;54.038;11.684;2024-01-06T06:37:16;100976.22;;;-1.83;100.00
7297;BME280;40758;54.038;11.684;2024-01-06T06:39:43;100995.69;;;-1.82;100.00
7297;BME280;40758;54.038;11.684;2024-01-06T06:42:11;100996.66;;;-1.83;100.00
7297;BME280;40758;54.038;11.684;2024-01-06T06:44:38;101000.75;;;-1.79;100.00
7297;BME280;40758;54.038;11.684;2024-01-06T06:47:05;101007.03;;;-1.80;100.00
7297;BME280;40758;54.038;11.684;2024-01-06T06:49:31;101004.50;;;-1.82;100.00
7297;BME280;40758;54.038;11.684;2024-01-06T06:51:58;101016.84;;;-1.81;100.00
7297;BME280;40758;54.038;11.684;2024-01-06T06:54:25;101012.91;;;-1.87;100.00
7297;BME280;40758;54.038;11.684;2024-01-06T06:56:52;101011.94;;;-1.85;100.00
7297;BME280;40758;54.038;11.684;2024-01-06T06:59:18;101028.63;;;-1.83;100.00
7297;BME280;40758;54.038;11.684;2024-01-06T07:01:45;101033.78;;;-1.82;100.00
7297;BME280;40758;54.038;11.684;2024-01-06T07:04:12;101035.75;;;-1.84;100.00
7297;BME280;40758;54.038;11.684;2024-01-06T07:06:39;101038.41;;;-1.84;100.00
7297;BME280;40758;54.038;11.684;2024-01-06T07:09:06;101038.56;;;-1.85;100.00
7297;BME280;40758;54.038;11.684;2024-01-06T07:11:32;101046.56;;;-1.85;100.00
7297;BME280;40758;54.038;11.684;2024-01-06T07:13:59;101045.81;;;-1.88;100.00
7297;BME280;40758;54.038;11.684;2024-01-06T07:16:26;101062.63;;;-1.87;100.00
7297;BME280;40758;54.038;11.684;2024-01-06T07:18:53;101059.13;;;-1.88;100.00
7297;BME280;40758;54.038;11.684;2024-01-06T07:21:21;101063.63;;;-1.88;100.00
7297;BME280;40758;54.038;11.684;2024-01-06T07:23:50;101066.41;;;-1.90;100.00
7297;BME280;40758;54.038;11.684;2024-01-06T07:26:16;101066.56;;;-1.91;100.00
7297;BME280;40758;54.038;11.684;2024-01-06T07:28:44;101070.16;;;-1.92;100.00
7297;BME280;40758;54.038;11.684;2024-01-06T07:31:11;101076.47;;;-1.93;100.00
7297;BME280;40758;54.038;11.684;2024-01-06T07:33:38;101073.81;;;-1.93;100.00
7297;BME280;40758;54.038;11.684;2024-01-06T07:36:06;101084.31;;;-1.92;100.00
7297;BME280;40758;54.038;11.684;2024-01-06T07:38:33;101083.47;;;-1.92;100.00
7297;BME280;40758;54.038;11.684;2024-01-06T07:40:59;101096.69;;;-1.91;100.00
7297;BME280;40758;54.038;11.684;2024-01-06T07:43:26;101078.69;;;-1.98;100.00
7297;BME280;40758;54.038;11.684;2024-01-06T07:45:53;101088.78;;;-1.92;100.00
7297;BME280;40758;54.038;11.684;2024-01-06T07:48:23;101092.31;;;-1.92;100.00
7297;BME280;40758;54.038;11.684;2024-01-06T07:50:50;101100.19;;;-1.90;100.00
7297;BME280;40758;54.038;11.684;2024-01-06T07:53:17;101109.69;;;-1.88;100.00
7297;BME280;40758;54.038;11.684;2024-01-06T07:55:44;101113.19;;;-1.87;100.00
7297;BME280;40758;54.038;11.684;2024-01-06T07:58:11;101108.03;;;-1.89;100.00
7297;BME280;40758;54.038;11.684;2024-01-06T08:00:38;101117.69;;;-1.88;100.00
7297;BME280;40758;54.038;11.684;2024-01-06T08:03:05;101123.59;;;-1.84;100.00
7297;BME280;40758;54.038;11.684;2024-01-06T08:05:33;101114.47;;;-1.91;100.00
7297;BME280;40758;54.038;11.684;2024-01-06T08:07:59;101125.44;;;-1.84;100.00
7297;BME280;40758;54.038;11.684;2024-01-06T08:10:26;101134.09;;;-1.82;100.00
7297;BME280;40758;54.038;11.684;2024-01-06T08:12:54;101137.63;;;-1.82;100.00
7297;BME280;40758;54.038;11.684;2024-01-06T08:15:21;101134.94;;;-1.82;100.00
7297;BME280;40758;54.038;11.684;2024-01-06T08:17:47;101135.66;;;-1.80;100.00
7297;BME280;40758;54.038;11.684;2024-01-06T08:20:14;101127.09;;;-1.83;100.00
7297;BME280;40758;54.038;11.684;2024-01-06T08:22:41;101139.06;;;-1.78;100.00
7297;BME280;40758;54.038;11.684;2024-01-06T08:25:08;101144.22;;;-1.76;100.00
7297;BME280;40758;54.038;11.684;2024-01-06T08:27:35;101142.28;;;-1.74;100.00
7297;BME280;40758;54.038;11.684;2024-01-06T08:30:01;101150.00;;;-1.71;100.00
7297;BME280;40758;54.038;11.684;2024-01-06T08:32:28;101148.19;;;-1.71;100.00
7297;BME280;40758;54.038;11.684;2024-01-06T08:34:55;101162.34;;;-1.70;100.00
7297;BME280;40758;54.038;11.684;2024-01-06T08:37:22;101169.94;;;-1.66;100.00
7297;BME280;40758;54.038;11.684;2024-01-06T08:39:49;101179.47;;;-1.63;100.00
7297;BME280;40758;54.038;11.684;2024-01-06T08:42:16;101180.06;;;-1.59;100.00
7297;BME280;40758;54.038;11.684;2024-01-06T08:44:43;101188.66;;;-1.56;100.00
7297;BME280;40758;54.038;11.684;2024-01-06T08:47:10;101190.31;;;-1.55;100.00
7297;BME280;40758;54.038;11.684;2024-01-06T08:49:37;101192.59;;;-1.50;100.00
7297;BME280;40758;54.038;11.684;2024-01-06T08:52:04;101192.31;;;-1.47;100.00
7297;BME280;40758;54.038;11.684;2024-01-06T08:54:32;101197.50;;;-1.46;100.00
7297;BME280;40758;54.038;11.684;2024-01-06T08:56:59;101199.91;;;-1.43;100.00
7297;BME280;40758;54.038;11.684;2024-01-06T08:59:26;101205.84;;;-1.39;100.00
7297;BME280;40758;54.038;11.684;2024-01-06T09:01:53;101211.72;;;-1.36;100.00
7297;BME280;40758;54.038;11.684;2024-01-06T09:04:19;101210.75;;;-1.35;100.00
7297;BME280;40758;54.038;11.684;2024-01-06T09:06:46;101213.31;;;-1.33;100.00
7297;BME280;40758;54.038;11.684;2024-01-06T09:09:13;101216.53;;;-1.29;100.00
7297;BME280;40758;54.038;11.684;2024-01-06T09:11:40;101230.28;;;-1.24;100.00
7297;BME280;40758;54.038;11.684;2024-01-06T09:14:08;101228.31;;;-1.22;100.00
7297;BME280;40758;54.038;11.684;2024-01-06T09:16:36;101230.59;;;-1.18;100.00
7297;BME280;40758;54.038;11.684;2024-01-06T09:19:03;101236.78;;;-1.17;100.00
7297;BME280;40758;54.038;11.684;2024-01-06T09:21:30;101243.53;;;-1.13;100.00
7297;BME280;40758;54.038;11.684;2024-01-06T09:23:57;101241.72;;;-1.13;100.00
7297;BME280;40758;54.038;11.684;2024-01-06T09:26:24;101235.53;;;-1.13;100.00
7297;BME280;40758;54.038;11.684;2024-01-06T09:28:51;101242.28;;;-1.09;100.00
7297;BME280;40758;54.038;11.684;2024-01-06T09:31:18;101247.78;;;-1.01;100.00
7297;BME280;40758;54.038;11.684;2024-01-06T09:33:46;101251.88;;;-0.97;100.00
7297;BME280;40758;54.038;11.684;2024-01-06T09:36:13;101253.44;;;-0.94;100.00
7297;BME280;40758;54.038;11.684;2024-01-06T09:38:40;101254.00;;;-0.91;100.00
7297;BME280;40758;54.038;11.684;2024-01-06T09:41:07;101258.22;;;-0.88;100.00
7297;BME280;40758;54.038;11.684;2024-01-06T09:43:34;101259.19;;;-0.89;100.00
7297;BME280;40758;54.038;11.684;2024-01-06T09:46:06;101271.44;;;-0.87;100.00
7297;BME280;40758;54.038;11.684;2024-01-06T09:48:40;101273.13;;;-0.86;100.00
7297;BME280;40758;54.038;11.684;2024-01-06T09:51:11;101271.84;;;-0.82;100.00
7297;BME280;40758;54.038;11.684;2024-01-06T09:56:26;101284.22;;;-0.81;100.00
7297;BME280;40758;54.038;11.684;2024-01-06T09:58:53;101279.75;;;-0.80;100.00
7297;BME280;40758;54.038;11.684;2024-01-06T10:01:20;101276.09;;;-0.79;100.00
7297;BME280;40758;54.038;11.684;2024-01-06T10:03:48;101272.59;;;-0.79;100.00
7297;BME280;40758;54.038;11.684;2024-01-06T10:06:16;101282.25;;;-0.78;100.00
7297;BME280;40758;54.038;11.684;2024-01-06T10:08:46;101282.25;;;-0.78;100.00
7297;BME280;40758;54.038;11.684;2024-01-06T10:11:14;101287.19;;;-0.74;100.00
7297;BME280;40758;54.038;11.684;2024-01-06T10:13:41;101294.34;;;-0.74;100.00
7297;BME280;40758;54.038;11.684;2024-01-06T10:16:08;101297.59;;;-0.71;100.00
7297;BME280;40758;54.038;11.684;2024-01-06T10:18:35;101305.47;;;-0.69;100.00
7297;BME280;40758;54.038;11.684;2024-01-06T10:21:03;101296.47;;;-0.68;100.00
7297;BME280;40758;54.038;11.684;2024-01-06T10:23:32;101281.97;;;-0.75;100.00
7297;BME280;40758;54.038;11.684;2024-01-06T10:26:00;101300.28;;;-0.61;100.00
7297;BME280;40758;54.038;11.684;2024-01-06T10:28:30;101304.66;;;-0.60;100.00
7297;BME280;40758;54.038;11.684;2024-01-06T10:30:57;101306.63;;;-0.62;100.00
7297;BME280;40758;54.038;11.684;2024-01-06T10:33:25;101300.16;;;-0.60;100.00
7297;BME280;40758;54.038;11.684;2024-01-06T10:35:52;101306.91;;;-0.56;100.00
7297;BME280;40758;54.038;11.684;2024-01-06T10:38:21;101314.38;;;-0.49;100.00
7297;BME280;40758;54.038;11.684;2024-01-06T10:41:01;101308.78;;;-0.46;100.00
7297;BME280;40758;54.038;11.684;2024-01-06T10:43:36;101309.47;;;-0.44;100.00
7297;BME280;40758;54.038;11.684;2024-01-06T10:46:10;101311.16;;;-0.43;100.00
7297;BME280;40758;54.038;11.684;2024-01-06T10:48:38;101320.69;;;-0.41;100.00
7297;BME280;40758;54.038;11.684;2024-01-06T10:51:11;101309.78;;;-0.38;100.00
7297;BME280;40758;54.038;11.684;2024-01-06T10:53:43;101295.44;;;-0.37;100.00
7297;BME280;40758;54.038;11.684;2024-01-06T10:56:10;101317.50;;;-0.35;100.00
7297;BME280;40758;54.038;11.684;2024-01-06T10:58:42;101318.91;;;-0.31;100.00
7297;BME280;40758;54.038;11.684;2024-01-06T11:01:12;101305.41;;;-0.39;100.00
7297;BME280;40758;54.038;11.684;2024-01-06T11:03:45;101315.00;;;-0.27;100.00
7297;BME280;40758;54.038;11.684;2024-01-06T11:06:12;101329.88;;;-0.24;100.00
7297;BME280;40758;54.038;11.684;2024-01-06T11:08:53;101328.78;;;-0.21;100.00
7297;BME280;40758;54.038;11.684;2024-01-06T11:11:22;101322.19;;;-0.17;100.00
7297;BME280;40758;54.038;11.684;2024-01-06T11:13:50;101325.56;;;-0.15;100.00
7297;BME280;40758;54.038;11.684;2024-01-06T11:16:36;101328.22;;;-0.15;100.00
7297;BME280;40758;54.038;11.684;2024-01-06T11:22:27;101336.81;;;-0.02;100.00
7297;BME280;40758;54.038;11.684;2024-01-06T11:25:06;101340.06;;;0.02;100.00
7297;BME280;40758;54.038;11.684;2024-01-06T11:27:35;101328.09;;;-0.04;100.00
7297;BME280;40758;54.038;11.684;2024-01-06T11:30:04;101339.22;;;0.01;100.00
7297;BME280;40758;54.038;11.684;2024-01-06T11:32:36;101328.53;;;0.01;100.00
7297;BME280;40758;54.038;11.684;2024-01-06T11:35:13;101326.13;;;-0.02;100.00
7297;BME280;40758;54.038;11.684;2024-01-06T11:40:23;101332.44;;;-0.13;100.00
7297;BME280;40758;54.038;11.684;2024-01-06T11:45:36;101354.38;;;-0.09;100.00
7297;BME280;40758;54.038;11.684;2024-01-06T11:48:05;101352.69;;;-0.10;100.00
7297;BME280;40758;54.038;11.684;2024-01-06T11:50:35;101352.94;;;-0.13;100.00
7297;BME280;40758;54.038;11.684;2024-01-06T11:53:03;101356.59;;;-0.14;100.00
7297;BME280;40758;54.038;11.684;2024-01-06T11:55:30;101349.84;;;-0.18;100.00
7297;BME280;40758;54.038;11.684;2024-01-06T11:58:01;101346.47;;;-0.20;100.00
7297;BME280;40758;54.038;11.684;2024-01-06T12:00:34;101355.47;;;-0.21;100.00
7297;BME280;40758;54.038;11.684;2024-01-06T12:03:06;101344.06;;;-0.23;100.00
7297;BME280;40758;54.038;11.684;2024-01-06T12:05:33;101348.56;;;-0.24;100.00
7297;BME280;40758;54.038;11.684;2024-01-06T12:08:01;101337.03;;;-0.24;100.00
7297;BME280;40758;54.038;11.684;2024-01-06T12:10:29;101344.06;;;-0.23;100.00
7297;BME280;40758;54.038;11.684;2024-01-06T12:13:00;101344.66;;;-0.20;100.00
7297;BME280;40758;54.038;11.684;2024-01-06T12:15:29;101342.81;;;-0.19;100.00
7297;BME280;40758;54.038;11.684;2024-01-06T12:17:56;101348.88;;;-0.17;100.00
7297;BME280;40758;54.038;11.684;2024-01-06T12:20:25;101355.91;;;-0.16;100.00
7297;BME280;40758;54.038;11.684;2024-01-06T12:22:52;101352.06;;;-0.23;100.00
7297;BME280;40758;54.038;11.684;2024-01-06T12:25:23;101358.84;;;-0.19;100.00
7297;BME280;40758;54.038;11.684;2024-01-06T12:27:52;101358.56;;;-0.16;100.00
7297;BME280;40758;54.038;11.684;2024-01-06T12:30:22;101360.41;;;-0.17;100.00
7297;BME280;40758;54.038;11.684;2024-01-06T12:32:50;101351.41;;;-0.16;100.00
7297;BME280;40758;54.038;11.684;2024-01-06T12:35:21;101364.47;;;-0.13;100.00
7297;BME280;40758;54.038;11.684;2024-01-06T12:37:49;101359.97;;;-0.12;100.00
7297;BME280;40758;54.038;11.684;2024-01-06T12:40:17;101359.13;;;-0.13;100.00
7297;BME280;40758;54.038;11.684;2024-01-06T12:42:46;101370.38;;;-0.09;100.00
7297;BME280;40758;54.038;11.684;2024-01-06T12:45:14;101360.69;;;-0.10;100.00
7297;BME280;40758;54.038;11.684;2024-01-06T12:47:43;101367.72;;;-0.09;100.00
7297;BME280;40758;54.038;11.684;2024-01-06T12:50:10;101377.41;;;-0.08;100.00
7297;BME280;40758;54.038;11.684;2024-01-06T12:52:37;101375.72;;;-0.09;100.00
7297;BME280;40758;54.038;11.684;2024-01-06T12:55:06;101372.22;;;-0.10;100.00